sensor_id;sensor_type;location;lat;lon;timestamp;P1;durP1;ratioP1;P2;durP2;ratioP2
4448;SDS011;2237;51.870;6.160;2022-12-07T00:01:10;18.08;;;8.27;;
4448;SDS011;2237;51.870;6.160;2022-12-07T00:03:38;18.73;;;8.50;;
4448;SDS011;2237;51.870;6.160;2022-12-07T00:06:06;15.75;;;7.80;;
4448;SDS011;2237;51.870;6.160;2022-12-07T00:08:34;16.95;;;8.70;;
4448;SDS011;2237;51.870;6.160;2022-12-07T00:11:05;13.23;;;7.80;;
4448;SDS011;2237;51.870;6.160;2022-12-07T00:13:32;15.40;;;7.78;;
4448;SDS011;2237;51.870;6.160;2022-12-07T00:16:00;17.40;;;8.07;;
4448;SDS011;2237;51.870;6.160;2022-12-07T00:18:28;16.45;;;8.48;;
4448;SDS011;2237;51.870;6.160;2022-12-07T00:20:58;17.02;;;8.07;;
4448;SDS011;2237;51.870;6.160;2022-12-07T00:23:26;16.27;;;7.35;;
4448;SDS011;2237;51.870;6.160;2022-12-07T00:25:52;12.75;;;6.88;;
4448;SDS011;2237;51.870;6.160;2022-12-07T00:28:19;17.20;;;8.35;;
4448;SDS011;2237;51.870;6.160;2022-12-07T00:30:45;15.05;;;6.78;;
4448;SDS011;2237;51.870;6.160;2022-12-07T00:33:11;14.25;;;6.72;;
4448;SDS011;2237;51.870;6.160;2022-12-07T00:35:38;16.75;;;7.50;;
4448;SDS011;2237;51.870;6.160;2022-12-07T00:38:04;16.23;;;7.30;;
4448;SDS011;2237;51.870;6.160;2022-12-07T00:40:30;14.93;;;7.40;;
4448;SDS011;2237;51.870;6.160;2022-12-07T00:42:57;11.50;;;5.93;;
4448;SDS011;2237;51.870;6.160;2022-12-07T00:45:23;11.25;;;6.78;;
4448;SDS011;2237;51.870;6.160;2022-12-07T00:47:49;13.05;;;6.30;;
4448;SDS011;2237;51.870;6.160;2022-12-07T00:50:16;14.40;;;7.22;;
4448;SDS011;2237;51.870;6.160;2022-12-07T00:52:42;14.25;;;6.00;;
4448;SDS011;2237;51.870;6.160;2022-12-07T00:55:08;10.63;;;5.53;;
4448;SDS011;2237;51.870;6.160;2022-12-07T00:57:35;9.45;;;5.78;;
4448;SDS011;2237;51.870;6.160;2022-12-07T01:00:01;12.25;;;6.22;;
4448;SDS011;2237;51.870;6.160;2022-12-07T01:02:28;16.38;;;6.63;;
4448;SDS011;2237;51.870;6.160;2022-12-07T01:04:54;13.65;;;6.18;;
4448;SDS011;2237;51.870;6.160;2022-12-07T01:07:21;11.95;;;6.45;;
4448;SDS011;2237;51.870;6.160;2022-12-07T01:09:47;14.02;;;6.88;;
4448;SDS011;2237;51.870;6.160;2022-12-07T01:12:13;18.50;;;7.20;;
4448;SDS011;2237;51.870;6.160;2022-12-07T01:14:41;13.50;;;7.35;;
4448;SDS011;2237;51.870;6.160;2022-12-07T01:17:07;15.40;;;7.00;;
4448;SDS011;2237;51.870;6.160;2022-12-07T01:19:34;15.48;;;7.63;;
4448;SDS011;2237;51.870;6.160;2022-12-07T01:22:00;13.48;;;6.97;;
4448;SDS011;2237;51.870;6.160;2022-12-07T01:24:27;16.77;;;7.38;;
4448;SDS011;2237;51.870;6.160;2022-12-07T01:26:53;12.23;;;7.20;;
4448;SDS011;2237;51.870;6.160;2022-12-07T01:29:19;12.55;;;6.65;;
4448;SDS011;2237;51.870;6.160;2022-12-07T01:31:48;17.05;;;6.85;;
4448;SDS011;2237;51.870;6.160;2022-12-07T01:34:14;14.52;;;7.78;;
4448;SDS011;2237;51.870;6.160;2022-12-07T01:36:41;14.95;;;7.57;;
4448;SDS011;2237;51.870;6.160;2022-12-07T01:39:08;13.73;;;6.88;;
4448;SDS011;2237;51.870;6.160;2022-12-07T01:41:37;13.55;;;7.00;;
4448;SDS011;2237;51.870;6.160;2022-12-07T01:44:17;20.48;;;7.43;;
4448;SDS011;2237;51.870;6.160;2022-12-07T01:46:59;21.02;;;8.10;;
4448;SDS011;2237;51.870;6.160;2022-12-07T01:49:29;16.00;;;7.28;;
4448;SDS011;2237;51.870;6.160;2022-12-07T01:54:49;13.27;;;6.80;;
4448;SDS011;2237;51.870;6.160;2022-12-07T01:57:20;13.60;;;6.70;;
4448;SDS011;2237;51.870;6.160;2022-12-07T01:59:47;14.27;;;7.28;;
4448;SDS011;2237;51.870;6.160;2022-12-07T02:02:20;13.02;;;6.40;;
4448;SDS011;2237;51.870;6.160;2022-12-07T02:04:52;12.38;;;7.65;;
4448;SDS011;2237;51.870;6.160;2022-12-07T02:07:20;17.30;;;7.57;;
4448;SDS011;2237;51.870;6.160;2022-12-07T02:09:49;12.90;;;7.07;;
4448;SDS011;2237;51.870;6.160;2022-12-07T02:12:15;14.32;;;6.00;;
4448;SDS011;2237;51.870;6.160;2022-12-07T02:14:41;13.93;;;6.60;;
4448;SDS011;2237;51.870;6.160;2022-12-07T02:17:17;12.70;;;6.35;;
4448;SDS011;2237;51.870;6.160;2022-12-07T02:23:12;14.38;;;6.32;;
4448;SDS011;2237;51.870;6.160;2022-12-07T02:31:24;12.93;;;6.30;;
4448;SDS011;2237;51.870;6.160;2022-12-07T02:33:55;17.17;;;7.15;;
4448;SDS011;2237;51.870;6.160;2022-12-07T02:36:32;13.20;;;5.20;;
4448;SDS011;2237;51.870;6.160;2022-12-07T02:41:33;13.80;;;6.32;;
4448;SDS011;2237;51.870;6.160;2022-12-07T02:44:05;16.48;;;7.07;;
4448;SDS011;2237;51.870;6.160;2022-12-07T02:46:36;14.77;;;7.00;;
4448;SDS011;2237;51.870;6.160;2022-12-07T02:49:06;13.23;;;6.03;;
4448;SDS011;2237;51.870;6.160;2022-12-07T02:51:38;13.05;;;6.18;;
4448;SDS011;2237;51.870;6.160;2022-12-07T02:54:11;15.07;;;6.78;;
4448;SDS011;2237;51.870;6.160;2022-12-07T03:07:26;13.30;;;6.43;;
4448;SDS011;2237;51.870;6.160;2022-12-07T03:10:03;13.52;;;6.63;;
4448;SDS011;2237;51.870;6.160;2022-12-07T03:12:40;16.58;;;6.32;;
4448;SDS011;2237;51.870;6.160;2022-12-07T03:15:14;15.23;;;6.15;;
4448;SDS011;2237;51.870;6.160;2022-12-07T03:17:46;10.95;;;6.00;;
4448;SDS011;2237;51.870;6.160;2022-12-07T03:20:16;14.50;;;6.20;;
4448;SDS011;2237;51.870;6.160;2022-12-07T03:22:45;14.25;;;6.00;;
4448;SDS011;2237;51.870;6.160;2022-12-07T03:25:13;11.63;;;5.70;;
4448;SDS011;2237;51.870;6.160;2022-12-07T03:27:48;14.20;;;5.32;;
4448;SDS011;2237;51.870;6.160;2022-12-07T03:30:27;8.88;;;4.18;;
4448;SDS011;2237;51.870;6.160;2022-12-07T03:35:29;15.05;;;5.40;;
4448;SDS011;2237;51.870;6.160;2022-12-07T03:38:02;9.82;;;4.78;;
4448;SDS011;2237;51.870;6.160;2022-12-07T03:40:40;11.07;;;4.72;;
4448;SDS011;2237;51.870;6.160;2022-12-07T03:43:30;10.75;;;5.28;;
4448;SDS011;2237;51.870;6.160;2022-12-07T03:46:00;10.15;;;4.00;;
4448;SDS011;2237;51.870;6.160;2022-12-07T03:48:52;11.02;;;4.88;;
4448;SDS011;2237;51.870;6.160;2022-12-07T03:51:27;10.55;;;4.30;;
4448;SDS011;2237;51.870;6.160;2022-12-07T03:54:05;9.85;;;3.90;;
4448;SDS011;2237;51.870;6.160;2022-12-07T03:56:36;8.57;;;3.78;;
4448;SDS011;2237;51.870;6.160;2022-12-07T03:59:05;7.15;;;4.13;;
4448;SDS011;2237;51.870;6.160;2022-12-07T04:01:32;7.68;;;3.22;;
4448;SDS011;2237;51.870;6.160;2022-12-07T04:03:58;9.63;;;4.05;;
4448;SDS011;2237;51.870;6.160;2022-12-07T04:06:25;11.73;;;3.83;;
4448;SDS011;2237;51.870;6.160;2022-12-07T04:08:51;9.38;;;3.75;;
4448;SDS011;2237;51.870;6.160;2022-12-07T04:11:17;10.93;;;4.57;;
4448;SDS011;2237;51.870;6.160;2022-12-07T04:13:43;12.20;;;4.60;;
4448;SDS011;2237;51.870;6.160;2022-12-07T04:16:29;9.30;;;4.47;;
4448;SDS011;2237;51.870;6.160;2022-12-07T04:18:55;10.80;;;4.35;;
4448;SDS011;2237;51.870;6.160;2022-12-07T04:21:21;14.93;;;4.25;;
4448;SDS011;2237;51.870;6.160;2022-12-07T04:23:48;15.68;;;4.60;;
4448;SDS011;2237;51.870;6.160;2022-12-07T04:26:14;16.85;;;3.78;;
4448;SDS011;2237;51.870;6.160;2022-12-07T04:28:40;10.80;;;3.42;;
4448;SDS011;2237;51.870;6.160;2022-12-07T04:31:07;13.30;;;3.25;;
4448;SDS011;2237;51.870;6.160;2022-12-07T04:33:33;11.10;;;3.17;;
4448;SDS011;2237;51.870;6.160;2022-12-07T04:36:01;11.68;;;3.75;;
4448;SDS011;2237;51.870;6.160;2022-12-07T04:38:27;7.50;;;2.97;;
4448;SDS011;2237;51.870;6.160;2022-12-07T04:40:54;10.07;;;3.08;;
4448;SDS011;2237;51.870;6.160;2022-12-07T04:43:20;9.63;;;3.30;;
4448;SDS011;2237;51.870;6.160;2022-12-07T04:45:47;11.10;;;3.75;;
4448;SDS011;2237;51.870;6.160;2022-12-07T04:48:13;9.88;;;3.00;;
4448;SDS011;2237;51.870;6.160;2022-12-07T04:50:40;7.65;;;3.05;;
4448;SDS011;2237;51.870;6.160;2022-12-07T04:53:12;8.43;;;2.90;;
4448;SDS011;2237;51.870;6.160;2022-12-07T04:55:38;8.35;;;3.28;;
4448;SDS011;2237;51.870;6.160;2022-12-07T04:58:05;8.05;;;3.25;;
4448;SDS011;2237;51.870;6.160;2022-12-07T05:00:31;9.55;;;3.70;;
4448;SDS011;2237;51.870;6.160;2022-12-07T05:02:58;11.63;;;3.58;;
4448;SDS011;2237;51.870;6.160;2022-12-07T05:05:24;12.55;;;3.40;;
4448;SDS011;2237;51.870;6.160;2022-12-07T05:07:51;8.10;;;3.03;;
4448;SDS011;2237;51.870;6.160;2022-12-07T05:10:17;10.52;;;3.58;;
4448;SDS011;2237;51.870;6.160;2022-12-07T05:12:44;9.50;;;3.00;;
4448;SDS011;2237;51.870;6.160;2022-12-07T05:15:11;9.50;;;2.95;;
4448;SDS011;2237;51.870;6.160;2022-12-07T05:17:39;9.15;;;3.50;;
4448;SDS011;2237;51.870;6.160;2022-12-07T05:20:05;9.90;;;3.80;;
4448;SDS011;2237;51.870;6.160;2022-12-07T05:22:32;9.80;;;4.60;;
4448;SDS011;2237;51.870;6.160;2022-12-07T05:24:58;9.95;;;4.70;;
4448;SDS011;2237;51.870;6.160;2022-12-07T05:27:25;9.52;;;4.50;;
4448;SDS011;2237;51.870;6.160;2022-12-07T05:29:51;15.38;;;5.45;;
4448;SDS011;2237;51.870;6.160;2022-12-07T05:32:18;11.93;;;5.03;;
4448;SDS011;2237;51.870;6.160;2022-12-07T05:34:44;8.30;;;4.05;;
4448;SDS011;2237;51.870;6.160;2022-12-07T05:37:10;10.52;;;5.30;;
4448;SDS011;2237;51.870;6.160;2022-12-07T05:39:37;13.18;;;4.50;;
4448;SDS011;2237;51.870;6.160;2022-12-07T05:42:07;11.52;;;4.47;;
4448;SDS011;2237;51.870;6.160;2022-12-07T05:44:43;10.35;;;4.45;;
4448;SDS011;2237;51.870;6.160;2022-12-07T05:47:11;12.98;;;4.15;;
4448;SDS011;2237;51.870;6.160;2022-12-07T05:49:38;9.88;;;4.38;;
4448;SDS011;2237;51.870;6.160;2022-12-07T05:52:05;16.95;;;4.68;;
4448;SDS011;2237;51.870;6.160;2022-12-07T05:54:32;13.10;;;5.20;;
4448;SDS011;2237;51.870;6.160;2022-12-07T05:56:58;16.05;;;6.00;;
4448;SDS011;2237;51.870;6.160;2022-12-07T05:59:25;15.40;;;5.55;;
4448;SDS011;2237;51.870;6.160;2022-12-07T06:01:54;15.38;;;4.13;;
4448;SDS011;2237;51.870;6.160;2022-12-07T06:04:27;12.70;;;4.53;;
4448;SDS011;2237;51.870;6.160;2022-12-07T06:06:55;11.02;;;4.80;;
4448;SDS011;2237;51.870;6.160;2022-12-07T06:09:22;9.23;;;4.05;;
4448;SDS011;2237;51.870;6.160;2022-12-07T06:11:50;7.72;;;3.50;;
4448;SDS011;2237;51.870;6.160;2022-12-07T06:14:35;24.15;;;7.07;;
4448;SDS011;2237;51.870;6.160;2022-12-07T06:17:01;20.85;;;6.35;;
4448;SDS011;2237;51.870;6.160;2022-12-07T06:19:28;17.38;;;4.55;;
4448;SDS011;2237;51.870;6.160;2022-12-07T06:21:56;18.70;;;5.53;;
4448;SDS011;2237;51.870;6.160;2022-12-07T06:24:22;9.35;;;3.28;;
4448;SDS011;2237;51.870;6.160;2022-12-07T06:26:49;10.73;;;3.28;;
4448;SDS011;2237;51.870;6.160;2022-12-07T06:29:16;8.35;;;2.60;;
4448;SDS011;2237;51.870;6.160;2022-12-07T06:31:43;17.92;;;4.07;;
4448;SDS011;2237;51.870;6.160;2022-12-07T06:34:11;7.97;;;2.80;;
4448;SDS011;2237;51.870;6.160;2022-12-07T06:36:39;10.15;;;2.35;;
4448;SDS011;2237;51.870;6.160;2022-12-07T06:39:06;7.57;;;2.42;;
4448;SDS011;2237;51.870;6.160;2022-12-07T06:41:33;4.95;;;2.40;;
4448;SDS011;2237;51.870;6.160;2022-12-07T06:44:00;11.27;;;2.65;;
4448;SDS011;2237;51.870;6.160;2022-12-07T06:46:26;7.45;;;2.95;;
4448;SDS011;2237;51.870;6.160;2022-12-07T06:48:52;13.23;;;4.75;;
4448;SDS011;2237;51.870;6.160;2022-12-07T06:51:19;11.18;;;4.80;;
4448;SDS011;2237;51.870;6.160;2022-12-07T06:53:45;9.10;;;4.15;;
4448;SDS011;2237;51.870;6.160;2022-12-07T06:56:12;11.48;;;3.60;;
4448;SDS011;2237;51.870;6.160;2022-12-07T06:58:38;15.05;;;4.18;;
4448;SDS011;2237;51.870;6.160;2022-12-07T07:01:08;11.98;;;4.00;;
4448;SDS011;2237;51.870;6.160;2022-12-07T07:03:39;7.38;;;3.30;;
4448;SDS011;2237;51.870;6.160;2022-12-07T07:06:06;12.43;;;4.07;;
4448;SDS011;2237;51.870;6.160;2022-12-07T07:08:34;9.85;;;3.95;;
4448;SDS011;2237;51.870;6.160;2022-12-07T07:11:01;15.55;;;4.88;;
4448;SDS011;2237;51.870;6.160;2022-12-07T07:13:27;14.20;;;5.03;;
4448;SDS011;2237;51.870;6.160;2022-12-07T07:15:54;15.77;;;4.70;;
4448;SDS011;2237;51.870;6.160;2022-12-07T07:18:20;11.48;;;4.32;;
4448;SDS011;2237;51.870;6.160;2022-12-07T07:20:47;11.20;;;4.38;;
4448;SDS011;2237;51.870;6.160;2022-12-07T07:23:13;29.88;;;6.05;;
4448;SDS011;2237;51.870;6.160;2022-12-07T07:25:40;14.63;;;4.40;;
4448;SDS011;2237;51.870;6.160;2022-12-07T07:28:06;13.63;;;3.38;;
4448;SDS011;2237;51.870;6.160;2022-12-07T07:30:35;9.93;;;3.40;;
4448;SDS011;2237;51.870;6.160;2022-12-07T07:33:02;11.43;;;3.45;;
4448;SDS011;2237;51.870;6.160;2022-12-07T07:35:30;5.97;;;2.47;;
4448;SDS011;2237;51.870;6.160;2022-12-07T07:37:58;11.00;;;2.90;;
4448;SDS011;2237;51.870;6.160;2022-12-07T07:40:25;4.40;;;2.47;;
4448;SDS011;2237;51.870;6.160;2022-12-07T07:42:52;11.90;;;2.42;;
4448;SDS011;2237;51.870;6.160;2022-12-07T07:45:20;8.18;;;2.85;;
4448;SDS011;2237;51.870;6.160;2022-12-07T07:47:48;8.15;;;2.60;;
4448;SDS011;2237;51.870;6.160;2022-12-07T07:50:15;5.80;;;2.40;;
4448;SDS011;2237;51.870;6.160;2022-12-07T07:52:42;12.23;;;2.92;;
4448;SDS011;2237;51.870;6.160;2022-12-07T07:55:09;10.45;;;3.33;;
4448;SDS011;2237;51.870;6.160;2022-12-07T07:57:36;8.77;;;3.42;;
4448;SDS011;2237;51.870;6.160;2022-12-07T08:00:04;13.40;;;4.05;;
4448;SDS011;2237;51.870;6.160;2022-12-07T08:02:33;13.10;;;3.95;;
4448;SDS011;2237;51.870;6.160;2022-12-07T08:04:59;11.40;;;3.83;;
4448;SDS011;2237;51.870;6.160;2022-12-07T08:07:26;12.95;;;5.00;;
4448;SDS011;2237;51.870;6.160;2022-12-07T08:09:53;16.23;;;4.97;;
4448;SDS011;2237;51.870;6.160;2022-12-07T08:12:20;8.35;;;3.88;;
4448;SDS011;2237;51.870;6.160;2022-12-07T08:14:46;14.25;;;3.47;;
4448;SDS011;2237;51.870;6.160;2022-12-07T08:17:12;13.23;;;3.50;;
4448;SDS011;2237;51.870;6.160;2022-12-07T08:19:39;9.80;;;3.47;;
4448;SDS011;2237;51.870;6.160;2022-12-07T08:22:05;14.10;;;4.00;;
4448;SDS011;2237;51.870;6.160;2022-12-07T08:24:35;12.00;;;3.40;;
4448;SDS011;2237;51.870;6.160;2022-12-07T08:27:02;11.23;;;3.77;;
4448;SDS011;2237;51.870;6.160;2022-12-07T08:29:29;7.78;;;3.97;;
4448;SDS011;2237;51.870;6.160;2022-12-07T08:31:55;8.90;;;2.92;;
4448;SDS011;2237;51.870;6.160;2022-12-07T08:34:22;10.05;;;3.08;;
4448;SDS011;2237;51.870;6.160;2022-12-07T08:36:48;6.68;;;2.53;;
4448;SDS011;2237;51.870;6.160;2022-12-07T08:39:14;8.15;;;3.13;;
4448;SDS011;2237;51.870;6.160;2022-12-07T08:41:57;10.27;;;3.30;;
4448;SDS011;2237;51.870;6.160;2022-12-07T08:44:23;10.15;;;3.30;;
4448;SDS011;2237;51.870;6.160;2022-12-07T08:47:00;6.40;;;2.70;;
4448;SDS011;2237;51.870;6.160;2022-12-07T08:52:32;9.40;;;3.40;;
4448;SDS011;2237;51.870;6.160;2022-12-07T08:55:00;4.88;;;2.55;;
4448;SDS011;2237;51.870;6.160;2022-12-07T08:57:27;3.92;;;1.25;;
4448;SDS011;2237;51.870;6.160;2022-12-07T08:59:54;6.50;;;1.30;;
4448;SDS011;2237;51.870;6.160;2022-12-07T09:02:21;7.45;;;1.48;;
4448;SDS011;2237;51.870;6.160;2022-12-07T09:04:48;10.43;;;1.20;;
4448;SDS011;2237;51.870;6.160;2022-12-07T09:07:14;7.80;;;1.58;;
4448;SDS011;2237;51.870;6.160;2022-12-07T09:09:41;5.60;;;1.60;;
4448;SDS011;2237;51.870;6.160;2022-12-07T09:12:07;6.70;;;1.48;;
4448;SDS011;2237;51.870;6.160;2022-12-07T09:14:34;6.75;;;1.30;;
4448;SDS011;2237;51.870;6.160;2022-12-07T09:17:11;5.20;;;1.30;;
4448;SDS011;2237;51.870;6.160;2022-12-07T09:19:38;5.13;;;1.40;;
4448;SDS011;2237;51.870;6.160;2022-12-07T09:22:05;8.13;;;1.98;;
4448;SDS011;2237;51.870;6.160;2022-12-07T09:24:31;8.98;;;2.13;;
4448;SDS011;2237;51.870;6.160;2022-12-07T09:26:58;7.43;;;3.00;;
4448;SDS011;2237;51.870;6.160;2022-12-07T09:29:24;5.95;;;1.80;;
4448;SDS011;2237;51.870;6.160;2022-12-07T09:31:51;6.30;;;1.70;;
4448;SDS011;2237;51.870;6.160;2022-12-07T09:34:18;10.15;;;1.83;;
4448;SDS011;2237;51.870;6.160;2022-12-07T09:36:45;5.90;;;1.50;;
4448;SDS011;2237;51.870;6.160;2022-12-07T09:39:11;10.52;;;1.88;;
4448;SDS011;2237;51.870;6.160;2022-12-07T09:41:41;5.93;;;1.60;;
4448;SDS011;2237;51.870;6.160;2022-12-07T09:44:13;8.15;;;1.73;;
4448;SDS011;2237;51.870;6.160;2022-12-07T09:46:44;4.32;;;1.30;;
4448;SDS011;2237;51.870;6.160;2022-12-07T09:49:12;6.63;;;1.58;;
4448;SDS011;2237;51.870;6.160;2022-12-07T09:51:45;5.68;;;1.08;;
4448;SDS011;2237;51.870;6.160;2022-12-07T09:54:12;5.85;;;1.70;;
4448;SDS011;2237;51.870;6.160;2022-12-07T09:56:40;8.93;;;1.40;;
4448;SDS011;2237;51.870;6.160;2022-12-07T09:59:09;5.13;;;1.30;;
4448;SDS011;2237;51.870;6.160;2022-12-07T10:01:42;4.55;;;1.70;;
4448;SDS011;2237;51.870;6.160;2022-12-07T10:04:10;8.52;;;2.42;;
4448;SDS011;2237;51.870;6.160;2022-12-07T10:06:45;2.30;;;1.25;;
4448;SDS011;2237;51.870;6.160;2022-12-07T10:09:15;5.90;;;2.78;;
4448;SDS011;2237;51.870;6.160;2022-12-07T10:14:35;5.78;;;1.85;;
4448;SDS011;2237;51.870;6.160;2022-12-07T10:22:37;7.40;;;2.53;;
4448;SDS011;2237;51.870;6.160;2022-12-07T10:25:08;7.22;;;2.17;;
4448;SDS011;2237;51.870;6.160;2022-12-07T10:27:44;2.10;;;1.02;;
4448;SDS011;2237;51.870;6.160;2022-12-07T10:30:23;6.65;;;2.33;;
4448;SDS011;2237;51.870;6.160;2022-12-07T10:32:50;4.40;;;1.98;;
4448;SDS011;2237;51.870;6.160;2022-12-07T10:37:57;7.32;;;1.77;;
4448;SDS011;2237;51.870;6.160;2022-12-07T10:43:01;11.00;;;2.22;;
4448;SDS011;2237;51.870;6.160;2022-12-07T10:45:45;8.60;;;1.85;;
4448;SDS011;2237;51.870;6.160;2022-12-07T10:51:45;5.00;;;1.70;;
4448;SDS011;2237;51.870;6.160;2022-12-07T10:54:22;6.43;;;1.63;;
4448;SDS011;2237;51.870;6.160;2022-12-07T10:57:16;4.40;;;1.50;;
4448;SDS011;2237;51.870;6.160;2022-12-07T11:05:39;6.10;;;1.98;;
4448;SDS011;2237;51.870;6.160;2022-12-07T11:08:18;4.45;;;1.50;;
4448;SDS011;2237;51.870;6.160;2022-12-07T11:11:21;4.57;;;1.30;;
4448;SDS011;2237;51.870;6.160;2022-12-07T11:16:55;3.92;;;1.30;;
4448;SDS011;2237;51.870;6.160;2022-12-07T11:19:35;5.53;;;1.40;;
4448;SDS011;2237;51.870;6.160;2022-12-07T11:22:19;1.45;;;0.95;;
4448;SDS011;2237;51.870;6.160;2022-12-07T11:25:21;3.30;;;0.90;;
4448;SDS011;2237;51.870;6.160;2022-12-07T11:30:53;4.53;;;1.10;;
4448;SDS011;2237;51.870;6.160;2022-12-07T11:39:26;5.18;;;1.30;;
4448;SDS011;2237;51.870;6.160;2022-12-07T11:41:52;4.30;;;1.25;;
4448;SDS011;2237;51.870;6.160;2022-12-07T11:47:10;5.43;;;1.50;;
4448;SDS011;2237;51.870;6.160;2022-12-07T11:53:10;3.92;;;1.10;;
4448;SDS011;2237;51.870;6.160;2022-12-07T12:01:37;9.00;;;1.85;;
4448;SDS011;2237;51.870;6.160;2022-12-07T12:04:34;7.57;;;1.38;;
4448;SDS011;2237;51.870;6.160;2022-12-07T12:08:03;8.40;;;1.65;;
4448;SDS011;2237;51.870;6.160;2022-12-07T12:19:28;7.07;;;1.60;;
4448;SDS011;2237;51.870;6.160;2022-12-07T12:22:17;3.20;;;1.00;;
4448;SDS011;2237;51.870;6.160;2022-12-07T12:24:47;4.45;;;1.38;;
4448;SDS011;2237;51.870;6.160;2022-12-07T12:27:27;4.18;;;0.88;;
4448;SDS011;2237;51.870;6.160;2022-12-07T12:29:59;2.40;;;1.00;;
4448;SDS011;2237;51.870;6.160;2022-12-07T12:32:46;5.32;;;1.13;;
4448;SDS011;2237;51.870;6.160;2022-12-07T12:40:46;6.15;;;1.27;;
4448;SDS011;2237;51.870;6.160;2022-12-07T12:51:51;4.65;;;1.10;;
4448;SDS011;2237;51.870;6.160;2022-12-07T12:54:32;4.18;;;0.90;;
4448;SDS011;2237;51.870;6.160;2022-12-07T13:13:01;3.67;;;1.20;;
4448;SDS011;2237;51.870;6.160;2022-12-07T13:15:40;1.73;;;0.80;;
4448;SDS011;2237;51.870;6.160;2022-12-07T13:18:24;3.33;;;1.20;;
4448;SDS011;2237;51.870;6.160;2022-12-07T13:32:04;2.75;;;0.90;;
4448;SDS011;2237;51.870;6.160;2022-12-07T13:40:20;5.10;;;0.90;;
4448;SDS011;2237;51.870;6.160;2022-12-07T13:42:56;1.88;;;0.60;;
4448;SDS011;2237;51.870;6.160;2022-12-07T13:45:25;3.92;;;0.90;;
4448;SDS011;2237;51.870;6.160;2022-12-07T13:48:15;4.38;;;0.57;;
4448;SDS011;2237;51.870;6.160;2022-12-07T13:50:54;3.42;;;0.93;;
4448;SDS011;2237;51.870;6.160;2022-12-07T13:53:22;3.38;;;0.90;;
4448;SDS011;2237;51.870;6.160;2022-12-07T13:55:48;3.47;;;1.50;;
4448;SDS011;2237;51.870;6.160;2022-12-07T13:58:19;8.63;;;2.47;;
4448;SDS011;2237;51.870;6.160;2022-12-07T14:00:46;3.63;;;1.38;;
4448;SDS011;2237;51.870;6.160;2022-12-07T14:05:40;5.55;;;1.10;;
4448;SDS011;2237;51.870;6.160;2022-12-07T14:10:39;5.55;;;0.68;;
4448;SDS011;2237;51.870;6.160;2022-12-07T14:15:58;3.63;;;0.47;;
4448;SDS011;2237;51.870;6.160;2022-12-07T14:18:40;4.20;;;1.10;;
4448;SDS011;2237;51.870;6.160;2022-12-07T14:23:37;1.73;;;0.70;;
4448;SDS011;2237;51.870;6.160;2022-12-07T14:26:07;3.97;;;1.10;;
4448;SDS011;2237;51.870;6.160;2022-12-07T14:28:37;4.43;;;0.82;;
4448;SDS011;2237;51.870;6.160;2022-12-07T14:31:07;4.10;;;0.52;;
4448;SDS011;2237;51.870;6.160;2022-12-07T14:33:45;5.63;;;0.93;;
4448;SDS011;2237;51.870;6.160;2022-12-07T14:36:12;2.88;;;0.43;;
4448;SDS011;2237;51.870;6.160;2022-12-07T14:38:40;4.63;;;0.93;;
4448;SDS011;2237;51.870;6.160;2022-12-07T14:41:10;5.50;;;0.47;;
4448;SDS011;2237;51.870;6.160;2022-12-07T14:43:59;3.92;;;0.32;;
4448;SDS011;2237;51.870;6.160;2022-12-07T14:46:46;4.13;;;0.75;;
4448;SDS011;2237;51.870;6.160;2022-12-07T14:49:14;2.67;;;0.35;;
4448;SDS011;2237;51.870;6.160;2022-12-07T14:52:00;2.08;;;0.40;;
4448;SDS011;2237;51.870;6.160;2022-12-07T14:54:47;5.85;;;0.60;;
4448;SDS011;2237;51.870;6.160;2022-12-07T14:57:13;2.90;;;0.60;;
4448;SDS011;2237;51.870;6.160;2022-12-07T14:59:40;1.67;;;0.63;;
4448;SDS011;2237;51.870;6.160;2022-12-07T15:02:11;4.40;;;0.70;;
4448;SDS011;2237;51.870;6.160;2022-12-07T15:04:38;2.78;;;0.85;;
4448;SDS011;2237;51.870;6.160;2022-12-07T15:07:06;7.07;;;0.73;;
4448;SDS011;2237;51.870;6.160;2022-12-07T15:09:36;0.75;;;0.40;;
4448;SDS011;2237;51.870;6.160;2022-12-07T15:12:03;2.17;;;0.20;;
4448;SDS011;2237;51.870;6.160;2022-12-07T15:14:29;3.55;;;0.38;;
4448;SDS011;2237;51.870;6.160;2022-12-07T15:16:56;3.78;;;0.75;;
4448;SDS011;2237;51.870;6.160;2022-12-07T15:19:42;4.22;;;0.68;;
4448;SDS011;2237;51.870;6.160;2022-12-07T15:22:08;4.72;;;0.70;;
4448;SDS011;2237;51.870;6.160;2022-12-07T15:24:37;3.00;;;0.70;;
4448;SDS011;2237;51.870;6.160;2022-12-07T15:27:03;2.40;;;0.55;;
4448;SDS011;2237;51.870;6.160;2022-12-07T15:29:30;5.70;;;0.75;;
4448;SDS011;2237;51.870;6.160;2022-12-07T15:31:56;4.50;;;0.75;;
4448;SDS011;2237;51.870;6.160;2022-12-07T15:34:24;4.60;;;0.90;;
4448;SDS011;2237;51.870;6.160;2022-12-07T15:36:51;4.85;;;0.70;;
4448;SDS011;2237;51.870;6.160;2022-12-07T15:39:18;4.63;;;1.02;;
4448;SDS011;2237;51.870;6.160;2022-12-07T15:41:44;5.95;;;1.80;;
4448;SDS011;2237;51.870;6.160;2022-12-07T15:44:13;5.00;;;1.52;;
4448;SDS011;2237;51.870;6.160;2022-12-07T15:46:59;6.43;;;1.83;;
4448;SDS011;2237;51.870;6.160;2022-12-07T15:49:26;5.25;;;1.25;;
4448;SDS011;2237;51.870;6.160;2022-12-07T15:51:53;9.95;;;2.75;;
4448;SDS011;2237;51.870;6.160;2022-12-07T15:54:24;7.80;;;1.83;;
4448;SDS011;2237;51.870;6.160;2022-12-07T15:56:52;9.43;;;2.15;;
4448;SDS011;2237;51.870;6.160;2022-12-07T15:59:18;6.45;;;1.30;;
4448;SDS011;2237;51.870;6.160;2022-12-07T16:01:45;3.95;;;1.73;;
4448;SDS011;2237;51.870;6.160;2022-12-07T16:04:12;4.03;;;2.20;;
4448;SDS011;2237;51.870;6.160;2022-12-07T16:06:38;6.45;;;2.47;;
4448;SDS011;2237;51.870;6.160;2022-12-07T16:09:04;7.50;;;1.90;;
4448;SDS011;2237;51.870;6.160;2022-12-07T16:11:31;8.27;;;2.20;;
4448;SDS011;2237;51.870;6.160;2022-12-07T16:13:58;7.40;;;1.52;;
4448;SDS011;2237;51.870;6.160;2022-12-07T16:16:24;4.93;;;1.70;;
4448;SDS011;2237;51.870;6.160;2022-12-07T16:18:51;6.47;;;1.90;;
4448;SDS011;2237;51.870;6.160;2022-12-07T16:21:18;12.27;;;2.53;;
4448;SDS011;2237;51.870;6.160;2022-12-07T16:23:50;8.75;;;2.63;;
4448;SDS011;2237;51.870;6.160;2022-12-07T16:26:18;4.93;;;1.83;;
4448;SDS011;2237;51.870;6.160;2022-12-07T16:28:48;7.50;;;3.28;;
4448;SDS011;2237;51.870;6.160;2022-12-07T16:31:16;7.95;;;3.10;;
4448;SDS011;2237;51.870;6.160;2022-12-07T16:33:44;7.82;;;3.20;;
4448;SDS011;2237;51.870;6.160;2022-12-07T16:36:12;9.65;;;3.03;;
4448;SDS011;2237;51.870;6.160;2022-12-07T16:39:02;7.05;;;2.28;;
4448;SDS011;2237;51.870;6.160;2022-12-07T16:41:29;4.28;;;1.85;;
4448;SDS011;2237;51.870;6.160;2022-12-07T16:43:56;7.10;;;2.15;;
4448;SDS011;2237;51.870;6.160;2022-12-07T16:46:22;7.78;;;2.13;;
4448;SDS011;2237;51.870;6.160;2022-12-07T16:48:49;5.72;;;1.50;;
4448;SDS011;2237;51.870;6.160;2022-12-07T16:51:16;2.53;;;1.45;;
4448;SDS011;2237;51.870;6.160;2022-12-07T16:53:42;4.93;;;1.33;;
4448;SDS011;2237;51.870;6.160;2022-12-07T16:56:09;7.07;;;1.67;;
4448;SDS011;2237;51.870;6.160;2022-12-07T16:58:41;5.47;;;1.48;;
4448;SDS011;2237;51.870;6.160;2022-12-07T17:01:09;6.53;;;1.10;;
4448;SDS011;2237;51.870;6.160;2022-12-07T17:03:37;2.15;;;0.93;;
4448;SDS011;2237;51.870;6.160;2022-12-07T17:06:09;3.42;;;0.80;;
4448;SDS011;2237;51.870;6.160;2022-12-07T17:08:37;8.10;;;1.25;;
4448;SDS011;2237;51.870;6.160;2022-12-07T17:11:08;2.65;;;0.68;;
4448;SDS011;2237;51.870;6.160;2022-12-07T17:13:36;2.40;;;0.80;;
4448;SDS011;2237;51.870;6.160;2022-12-07T17:16:21;5.45;;;1.75;;
4448;SDS011;2237;51.870;6.160;2022-12-07T17:18:48;2.40;;;1.15;;
4448;SDS011;2237;51.870;6.160;2022-12-07T17:21:14;4.38;;;1.40;;
4448;SDS011;2237;51.870;6.160;2022-12-07T17:23:40;3.50;;;1.30;;
4448;SDS011;2237;51.870;6.160;2022-12-07T17:26:08;3.13;;;1.00;;
4448;SDS011;2237;51.870;6.160;2022-12-07T17:28:40;3.55;;;1.30;;
4448;SDS011;2237;51.870;6.160;2022-12-07T17:31:08;3.08;;;1.05;;
4448;SDS011;2237;51.870;6.160;2022-12-07T17:33:36;3.35;;;1.02;;
4448;SDS011;2237;51.870;6.160;2022-12-07T17:38:59;4.38;;;1.30;;
4448;SDS011;2237;51.870;6.160;2022-12-07T17:41:26;4.40;;;1.33;;
4448;SDS011;2237;51.870;6.160;2022-12-07T17:44:13;6.68;;;1.10;;
4448;SDS011;2237;51.870;6.160;2022-12-07T17:46:42;21.48;;;5.07;;
4448;SDS011;2237;51.870;6.160;2022-12-07T17:49:09;4.63;;;2.00;;
4448;SDS011;2237;51.870;6.160;2022-12-07T17:51:35;7.85;;;2.33;;
4448;SDS011;2237;51.870;6.160;2022-12-07T17:54:20;12.98;;;3.83;;